sensor_id;sensor_type;location;lat;lon;timestamp;temperature;humidity
20045;DHT22;10183;47.808;9.476;2023-05-10T00:01:41;11.80;99.90
20045;DHT22;10183;47.808;9.476;2023-05-10T00:04:07;11.80;99.90
20045;DHT22;10183;47.808;9.476;2023-05-10T00:06:34;11.80;99.90
20045;DHT22;10183;47.808;9.476;2023-05-10T00:09:00;11.80;99.90
20045;DHT22;10183;47.808;9.476;2023-05-10T00:11:26;11.80;99.90
20045;DHT22;10183;47.808;9.476;2023-05-10T00:13:52;11.80;99.90
20045;DHT22;10183;47.808;9.476;2023-05-10T00:16:19;11.80;99.90
20045;DHT22;10183;47.808;9.476;2023-05-10T00:18:45;11.80;99.90
20045;DHT22;10183;47.808;9.476;2023-05-10T00:21:11;11.80;99.90
20045;DHT22;10183;47.808;9.476;2023-05-10T00:23:37;11.80;99.90
20045;DHT22;10183;47.808;9.476;2023-05-10T00:26:04;11.70;99.90
20045;DHT22;10183;47.808;9.476;2023-05-10T00:28:30;11.70;99.90
20045;DHT22;10183;47.808;9.476;2023-05-10T00:30:56;11.70;99.90
20045;DHT22;10183;47.808;9.476;2023-05-10T00:33:22;11.60;99.90
20045;DHT22;10183;47.808;9.476;2023-05-10T00:35:48;11.60;99.90
20045;DHT22;10183;47.808;9.476;2023-05-10T00:38:14;11.50;99.90
20045;DHT22;10183;47.808;9.476;2023-05-10T00:40:41;11.50;99.90
20045;DHT22;10183;47.808;9.476;2023-05-10T00:43:07;11.50;99.90
20045;DHT22;10183;47.808;9.476;2023-05-10T00:45:34;11.50;99.90
20045;DHT22;10183;47.808;9.476;2023-05-10T00:48:02;11.50;99.90
20045;DHT22;10183;47.808;9.476;2023-05-10T00:50:30;11.50;99.90
20045;DHT22;10183;47.808;9.476;2023-05-10T00:52:58;11.40;99.90
20045;DHT22;10183;47.808;9.476;2023-05-10T00:55:25;11.40;99.90
20045;DHT22;10183;47.808;9.476;2023-05-10T00:57:53;11.50;99.90
20045;DHT22;10183;47.808;9.476;2023-05-10T01:00:19;11.40;99.90
20045;DHT22;10183;47.808;9.476;2023-05-10T01:02:46;11.40;99.90
20045;DHT22;10183;47.808;9.476;2023-05-10T01:05:12;11.40;99.90
20045;DHT22;10183;47.808;9.476;2023-05-10T01:07:48;11.40;99.90
20045;DHT22;10183;47.808;9.476;2023-05-10T01:10:14;11.40;99.90
20045;DHT22;10183;47.808;9.476;2023-05-10T01:12:43;11.40;99.90
20045;DHT22;10183;47.808;9.476;2023-05-10T01:15:11;11.40;99.90
20045;DHT22;10183;47.808;9.476;2023-05-10T01:17:39;11.40;99.90
20045;DHT22;10183;47.808;9.476;2023-05-10T01:20:07;11.40;99.90
20045;DHT22;10183;47.808;9.476;2023-05-10T01:34:07;11.40;99.90
20045;DHT22;10183;47.808;9.476;2023-05-10T01:36:51;11.40;99.90
20045;DHT22;10183;47.808;9.476;2023-05-10T01:39:25;11.30;99.90
20045;DHT22;10183;47.808;9.476;2023-05-10T01:41:57;11.40;99.90
20045;DHT22;10183;47.808;9.476;2023-05-10T01:44:39;11.40;99.90
20045;DHT22;10183;47.808;9.476;2023-05-10T01:47:14;11.40;99.90
20045;DHT22;10183;47.808;9.476;2023-05-10T01:49:49;11.30;99.90
20045;DHT22;10183;47.808;9.476;2023-05-10T01:52:17;11.30;99.90
20045;DHT22;10183;47.808;9.476;2023-05-10T01:55:01;11.40;99.90
20045;DHT22;10183;47.808;9.476;2023-05-10T01:57:33;11.30;99.90
20045;DHT22;10183;47.808;9.476;2023-05-10T02:00:02;11.30;99.90
20045;DHT22;10183;47.808;9.476;2023-05-10T02:02:30;11.30;99.90
20045;DHT22;10183;47.808;9.476;2023-05-10T02:04:59;11.30;99.90
20045;DHT22;10183;47.808;9.476;2023-05-10T02:07:27;11.30;99.90
20045;DHT22;10183;47.808;9.476;2023-05-10T02:09:55;11.30;99.90
20045;DHT22;10183;47.808;9.476;2023-05-10T02:12:23;11.30;99.90
20045;DHT22;10183;47.808;9.476;2023-05-10T02:14:51;11.30;99.90
20045;DHT22;10183;47.808;9.476;2023-05-10T02:17:18;11.30;99.90
20045;DHT22;10183;47.808;9.476;2023-05-10T02:19:47;11.30;99.90
20045;DHT22;10183;47.808;9.476;2023-05-10T02:22:14;11.30;99.90
20045;DHT22;10183;47.808;9.476;2023-05-10T02:24:42;11.30;99.90
20045;DHT22;10183;47.808;9.476;2023-05-10T02:27:10;11.20;99.90
20045;DHT22;10183;47.808;9.476;2023-05-10T02:29:37;11.20;99.90
20045;DHT22;10183;47.808;9.476;2023-05-10T02:32:04;11.20;99.90
20045;DHT22;10183;47.808;9.476;2023-05-10T02:34:31;11.20;99.90
20045;DHT22;10183;47.808;9.476;2023-05-10T02:36:58;11.10;99.90
20045;DHT22;10183;47.808;9.476;2023-05-10T02:39:26;11.10;99.90
20045;DHT22;10183;47.808;9.476;2023-05-10T02:41:54;11.20;99.90
20045;DHT22;10183;47.808;9.476;2023-05-10T02:44:22;11.20;99.90
20045;DHT22;10183;47.808;9.476;2023-05-10T02:46:49;11.10;99.90
20045;DHT22;10183;47.808;9.476;2023-05-10T02:49:16;11.10;99.90
20045;DHT22;10183;47.808;9.476;2023-05-10T02:51:47;11.10;99.90
20045;DHT22;10183;47.808;9.476;2023-05-10T02:54:30;11.10;99.90
20045;DHT22;10183;47.808;9.476;2023-05-10T02:56:58;11.10;99.90
20045;DHT22;10183;47.808;9.476;2023-05-10T02:59:26;11.10;99.90
20045;DHT22;10183;47.808;9.476;2023-05-10T03:01:53;11.10;99.90
20045;DHT22;10183;47.808;9.476;2023-05-10T03:04:19;11.10;99.90
20045;DHT22;10183;47.808;9.476;2023-05-10T03:06:45;11.10;99.90
20045;DHT22;10183;47.808;9.476;2023-05-10T03:09:13;11.10;99.90
20045;DHT22;10183;47.808;9.476;2023-05-10T03:12:07;11.10;99.90
20045;DHT22;10183;47.808;9.476;2023-05-10T03:15:03;11.00;99.90
20045;DHT22;10183;47.808;9.476;2023-05-10T03:17:54;11.00;99.90
20045;DHT22;10183;47.808;9.476;2023-05-10T03:20:29;11.00;99.90
20045;DHT22;10183;47.808;9.476;2023-05-10T03:23:21;11.00;99.90
20045;DHT22;10183;47.808;9.476;2023-05-10T03:25:48;11.00;99.90
20045;DHT22;10183;47.808;9.476;2023-05-10T03:28:17;11.00;99.90
20045;DHT22;10183;47.808;9.476;2023-05-10T03:30:44;10.90;99.90
20045;DHT22;10183;47.808;9.476;2023-05-10T03:33:11;10.90;99.90
20045;DHT22;10183;47.808;9.476;2023-05-10T03:35:38;10.90;99.90
20045;DHT22;10183;47.808;9.476;2023-05-10T03:38:05;10.90;99.90
20045;DHT22;10183;47.808;9.476;2023-05-10T03:40:31;10.90;99.90
20045;DHT22;10183;47.808;9.476;2023-05-10T03:42:58;10.90;99.90
20045;DHT22;10183;47.808;9.476;2023-05-10T03:45:26;10.90;99.90
20045;DHT22;10183;47.808;9.476;2023-05-10T03:47:52;10.90;99.90
20045;DHT22;10183;47.808;9.476;2023-05-10T03:50:20;10.90;99.90
20045;DHT22;10183;47.808;9.476;2023-05-10T03:52:46;10.90;99.90
20045;DHT22;10183;47.808;9.476;2023-05-10T03:55:13;10.90;99.90
20045;DHT22;10183;47.808;9.476;2023-05-10T03:57:39;10.90;99.90
20045;DHT22;10183;47.808;9.476;2023-05-10T04:00:06;10.90;99.90
20045;DHT22;10183;47.808;9.476;2023-05-10T04:02:32;10.90;99.90
20045;DHT22;10183;47.808;9.476;2023-05-10T04:04:58;10.90;99.90
20045;DHT22;10183;47.808;9.476;2023-05-10T04:07:25;10.90;99.90
20045;DHT22;10183;47.808;9.476;2023-05-10T04:09:51;10.90;99.90
20045;DHT22;10183;47.808;9.476;2023-05-10T04:12:17;10.90;99.90
20045;DHT22;10183;47.808;9.476;2023-05-10T04:14:43;10.90;99.90
20045;DHT22;10183;47.808;9.476;2023-05-10T04:17:09;10.90;99.90
20045;DHT22;10183;47.808;9.476;2023-05-10T04:19:36;11.00;99.90
20045;DHT22;10183;47.808;9.476;2023-05-10T04:22:03;11.00;99.90
20045;DHT22;10183;47.808;9.476;2023-05-10T04:24:29;11.00;99.90
20045;DHT22;10183;47.808;9.476;2023-05-10T04:26:55;11.00;99.90
20045;DHT22;10183;47.808;9.476;2023-05-10T04:29:21;11.00;99.90
20045;DHT22;10183;47.808;9.476;2023-05-10T04:31:48;10.90;99.90
20045;DHT22;10183;47.808;9.476;2023-05-10T04:34:15;10.90;99.90
20045;DHT22;10183;47.808;9.476;2023-05-10T04:36:41;10.90;99.90
20045;DHT22;10183;47.808;9.476;2023-05-10T04:39:07;10.90;99.90
20045;DHT22;10183;47.808;9.476;2023-05-10T04:41:34;11.00;99.90
20045;DHT22;10183;47.808;9.476;2023-05-10T04:44:01;10.90;99.90
20045;DHT22;10183;47.808;9.476;2023-05-10T04:46:27;11.00;99.90
20045;DHT22;10183;47.808;9.476;2023-05-10T04:48:53;10.90;99.90
20045;DHT22;10183;47.808;9.476;2023-05-10T04:51:20;10.90;99.90
20045;DHT22;10183;47.808;9.476;2023-05-10T04:53:46;11.00;99.90
20045;DHT22;10183;47.808;9.476;2023-05-10T04:56:12;11.00;99.90
20045;DHT22;10183;47.808;9.476;2023-05-10T04:58:38;11.00;99.90
20045;DHT22;10183;47.808;9.476;2023-05-10T05:01:05;11.00;99.90
20045;DHT22;10183;47.808;9.476;2023-05-10T05:03:32;11.00;99.90
20045;DHT22;10183;47.808;9.476;2023-05-10T05:05:59;11.00;99.90
20045;DHT22;10183;47.808;9.476;2023-05-10T05:08:26;11.10;99.90
20045;DHT22;10183;47.808;9.476;2023-05-10T05:10:52;11.10;99.90
20045;DHT22;10183;47.808;9.476;2023-05-10T05:13:18;11.10;99.90
20045;DHT22;10183;47.808;9.476;2023-05-10T05:15:45;11.10;99.90
20045;DHT22;10183;47.808;9.476;2023-05-10T05:18:11;11.10;99.90
20045;DHT22;10183;47.808;9.476;2023-05-10T05:20:37;11.20;99.90
20045;DHT22;10183;47.808;9.476;2023-05-10T05:23:03;11.20;99.90
20045;DHT22;10183;47.808;9.476;2023-05-10T05:25:30;11.10;99.90
20045;DHT22;10183;47.808;9.476;2023-05-10T05:27:56;11.20;99.90
20045;DHT22;10183;47.808;9.476;2023-05-10T05:30:22;11.20;99.90
20045;DHT22;10183;47.808;9.476;2023-05-10T05:32:48;11.10;99.90
20045;DHT22;10183;47.808;9.476;2023-05-10T05:35:14;11.20;99.90
20045;DHT22;10183;47.808;9.476;2023-05-10T05:37:40;11.10;99.90
20045;DHT22;10183;47.808;9.476;2023-05-10T05:40:07;11.10;99.90
20045;DHT22;10183;47.808;9.476;2023-05-10T05:42:33;11.20;99.90
20045;DHT22;10183;47.808;9.476;2023-05-10T05:44:59;11.10;99.90
20045;DHT22;10183;47.808;9.476;2023-05-10T05:47:26;11.10;99.90
20045;DHT22;10183;47.808;9.476;2023-05-10T05:49:52;11.10;99.90
20045;DHT22;10183;47.808;9.476;2023-05-10T05:52:18;11.00;99.90
20045;DHT22;10183;47.808;9.476;2023-05-10T05:54:44;11.10;99.90
20045;DHT22;10183;47.808;9.476;2023-05-10T05:57:10;11.10;99.90
20045;DHT22;10183;47.808;9.476;2023-05-10T05:59:36;11.10;99.90
20045;DHT22;10183;47.808;9.476;2023-05-10T06:02:08;11.10;99.90
20045;DHT22;10183;47.808;9.476;2023-05-10T06:04:34;11.10;99.90
20045;DHT22;10183;47.808;9.476;2023-05-10T06:07:00;11.20;99.90
20045;DHT22;10183;47.808;9.476;2023-05-10T06:09:26;11.10;99.90
20045;DHT22;10183;47.808;9.476;2023-05-10T06:11:53;11.10;99.90
20045;DHT22;10183;47.808;9.476;2023-05-10T06:14:22;11.20;99.90
20045;DHT22;10183;47.808;9.476;2023-05-10T06:16:48;11.20;99.90
20045;DHT22;10183;47.808;9.476;2023-05-10T06:19:14;11.20;99.90
20045;DHT22;10183;47.808;9.476;2023-05-10T06:21:40;11.20;99.90
20045;DHT22;10183;47.808;9.476;2023-05-10T06:24:06;11.20;99.90
20045;DHT22;10183;47.808;9.476;2023-05-10T06:26:33;11.20;99.90
20045;DHT22;10183;47.808;9.476;2023-05-10T06:28:59;11.30;99.90
20045;DHT22;10183;47.808;9.476;2023-05-10T06:31:25;11.20;99.90
20045;DHT22;10183;47.808;9.476;2023-05-10T06:33:51;11.20;99.90
20045;DHT22;10183;47.808;9.476;2023-05-10T06:36:18;11.20;99.90
20045;DHT22;10183;47.808;9.476;2023-05-10T06:38:44;11.10;99.90
20045;DHT22;10183;47.808;9.476;2023-05-10T06:41:10;11.10;99.90
20045;DHT22;10183;47.808;9.476;2023-05-10T06:43:36;11.10;99.90
20045;DHT22;10183;47.808;9.476;2023-05-10T06:46:05;11.20;99.90
20045;DHT22;10183;47.808;9.476;2023-05-10T06:48:32;11.10;99.90
20045;DHT22;10183;47.808;9.476;2023-05-10T06:50:58;11.10;99.90
20045;DHT22;10183;47.808;9.476;2023-05-10T06:53:25;11.10;99.90
20045;DHT22;10183;47.808;9.476;2023-05-10T06:55:51;11.10;99.90
20045;DHT22;10183;47.808;9.476;2023-05-10T06:58:17;11.10;99.90
20045;DHT22;10183;47.808;9.476;2023-05-10T07:00:43;11.10;99.90
20045;DHT22;10183;47.808;9.476;2023-05-10T07:03:11;11.10;99.90
20045;DHT22;10183;47.808;9.476;2023-05-10T07:05:37;11.10;99.90
20045;DHT22;10183;47.808;9.476;2023-05-10T07:08:03;11.10;99.90
20045;DHT22;10183;47.808;9.476;2023-05-10T07:10:29;11.10;99.90
20045;DHT22;10183;47.808;9.476;2023-05-10T07:12:56;11.10;99.90
20045;DHT22;10183;47.808;9.476;2023-05-10T07:15:22;11.10;99.90
20045;DHT22;10183;47.808;9.476;2023-05-10T07:17:48;11.10;99.90
20045;DHT22;10183;47.808;9.476;2023-05-10T07:20:15;11.20;99.90
20045;DHT22;10183;47.808;9.476;2023-05-10T07:22:41;11.30;99.90
20045;DHT22;10183;47.808;9.476;2023-05-10T07:25:07;11.30;99.90
20045;DHT22;10183;47.808;9.476;2023-05-10T07:27:33;11.40;99.90
20045;DHT22;10183;47.808;9.476;2023-05-10T07:30:00;11.30;99.90
20045;DHT22;10183;47.808;9.476;2023-05-10T07:32:27;11.20;99.90
20045;DHT22;10183;47.808;9.476;2023-05-10T07:34:53;11.30;99.90
20045;DHT22;10183;47.808;9.476;2023-05-10T07:37:19;11.20;99.90
20045;DHT22;10183;47.808;9.476;2023-05-10T07:39:46;11.20;99.90
20045;DHT22;10183;47.808;9.476;2023-05-10T07:42:12;11.30;99.90
20045;DHT22;10183;47.808;9.476;2023-05-10T07:44:38;11.40;99.90
20045;DHT22;10183;47.808;9.476;2023-05-10T07:47:04;11.50;99.90
20045;DHT22;10183;47.808;9.476;2023-05-10T07:49:30;11.30;99.90
20045;DHT22;10183;47.808;9.476;2023-05-10T07:51:56;11.40;99.90
20045;DHT22;10183;47.808;9.476;2023-05-10T07:54:22;11.40;99.90
20045;DHT22;10183;47.808;9.476;2023-05-10T07:56:49;11.40;99.90
20045;DHT22;10183;47.808;9.476;2023-05-10T07:59:16;11.30;99.90
20045;DHT22;10183;47.808;9.476;2023-05-10T08:01:43;11.50;99.90
20045;DHT22;10183;47.808;9.476;2023-05-10T08:04:09;11.60;99.90
20045;DHT22;10183;47.808;9.476;2023-05-10T08:06:36;11.60;99.90
20045;DHT22;10183;47.808;9.476;2023-05-10T08:09:02;11.80;99.90
20045;DHT22;10183;47.808;9.476;2023-05-10T08:11:28;11.80;99.90
20045;DHT22;10183;47.808;9.476;2023-05-10T08:13:54;11.90;99.90
20045;DHT22;10183;47.808;9.476;2023-05-10T08:16:21;12.00;99.90
20045;DHT22;10183;47.808;9.476;2023-05-10T08:18:47;12.00;99.90
20045;DHT22;10183;47.808;9.476;2023-05-10T08:21:14;12.20;99.90
20045;DHT22;10183;47.808;9.476;2023-05-10T08:23:41;12.20;99.90
20045;DHT22;10183;47.808;9.476;2023-05-10T08:26:09;12.20;99.90
20045;DHT22;10183;47.808;9.476;2023-05-10T08:28:35;12.10;99.90
20045;DHT22;10183;47.808;9.476;2023-05-10T08:31:01;12.10;99.90
20045;DHT22;10183;47.808;9.476;2023-05-10T08:33:27;12.00;99.90
20045;DHT22;10183;47.808;9.476;2023-05-10T08:35:54;12.10;99.90
20045;DHT22;10183;47.808;9.476;2023-05-10T08:38:20;11.90;99.90
20045;DHT22;10183;47.808;9.476;2023-05-10T08:40:49;11.90;99.90
20045;DHT22;10183;47.808;9.476;2023-05-10T08:43:16;11.70;99.90
20045;DHT22;10183;47.808;9.476;2023-05-10T08:45:44;11.70;99.90
20045;DHT22;10183;47.808;9.476;2023-05-10T08:48:14;11.80;99.90
20045;DHT22;10183;47.808;9.476;2023-05-10T08:50:41;11.90;99.90
20045;DHT22;10183;47.808;9.476;2023-05-10T08:53:13;11.90;99.90
20045;DHT22;10183;47.808;9.476;2023-05-10T08:55:40;12.10;99.90
20045;DHT22;10183;47.808;9.476;2023-05-10T08:58:08;12.30;99.90
20045;DHT22;10183;47.808;9.476;2023-05-10T09:00:36;12.00;99.90
20045;DHT22;10183;47.808;9.476;2023-05-10T09:03:05;11.90;99.90
20045;DHT22;10183;47.808;9.476;2023-05-10T09:05:32;12.10;99.90
20045;DHT22;10183;47.808;9.476;2023-05-10T09:07:58;12.00;99.90
20045;DHT22;10183;47.808;9.476;2023-05-10T09:10:26;11.90;99.90
20045;DHT22;10183;47.808;9.476;2023-05-10T09:12:56;12.30;99.90
20045;DHT22;10183;47.808;9.476;2023-05-10T09:15:22;12.30;99.90
20045;DHT22;10183;47.808;9.476;2023-05-10T09:17:49;12.20;99.90
20045;DHT22;10183;47.808;9.476;2023-05-10T09:20:16;12.10;99.90
20045;DHT22;10183;47.808;9.476;2023-05-10T09:22:43;12.10;99.90
20045;DHT22;10183;47.808;9.476;2023-05-10T09:25:11;12.10;99.90
20045;DHT22;10183;47.808;9.476;2023-05-10T09:27:43;11.90;99.90
20045;DHT22;10183;47.808;9.476;2023-05-10T09:32:47;12.00;99.90
20045;DHT22;10183;47.808;9.476;2023-05-10T09:35:15;12.30;99.90
20045;DHT22;10183;47.808;9.476;2023-05-10T09:37:43;12.30;99.90
20045;DHT22;10183;47.808;9.476;2023-05-10T09:40:17;12.20;99.90
20045;DHT22;10183;47.808;9.476;2023-05-10T09:43:06;12.30;99.90
20045;DHT22;10183;47.808;9.476;2023-05-10T09:45:34;12.50;99.90
20045;DHT22;10183;47.808;9.476;2023-05-10T09:48:02;12.80;99.90
20045;DHT22;10183;47.808;9.476;2023-05-10T09:50:29;13.00;99.90
20045;DHT22;10183;47.808;9.476;2023-05-10T09:52:58;12.60;99.90
20045;DHT22;10183;47.808;9.476;2023-05-10T09:55:45;13.00;99.90
20045;DHT22;10183;47.808;9.476;2023-05-10T09:58:13;13.20;99.90
20045;DHT22;10183;47.808;9.476;2023-05-10T10:00:41;13.20;99.90
20045;DHT22;10183;47.808;9.476;2023-05-10T10:03:17;12.70;99.90
20045;DHT22;10183;47.808;9.476;2023-05-10T10:05:44;12.70;99.90
20045;DHT22;10183;47.808;9.476;2023-05-10T10:08:11;12.60;99.90
20045;DHT22;10183;47.808;9.476;2023-05-10T10:10:38;12.80;99.90
20045;DHT22;10183;47.808;9.476;2023-05-10T10:13:06;12.90;99.90
20045;DHT22;10183;47.808;9.476;2023-05-10T10:15:33;13.10;99.90
20045;DHT22;10183;47.808;9.476;2023-05-10T10:18:00;13.20;99.90
20045;DHT22;10183;47.808;9.476;2023-05-10T10:20:27;12.90;99.90
20045;DHT22;10183;47.808;9.476;2023-05-10T10:22:53;12.90;99.90
20045;DHT22;10183;47.808;9.476;2023-05-10T10:25:20;13.00;99.90
20045;DHT22;10183;47.808;9.476;2023-05-10T10:35:48;12.70;99.90
20045;DHT22;10183;47.808;9.476;2023-05-10T10:38:15;12.70;99.90
20045;DHT22;10183;47.808;9.476;2023-05-10T10:40:42;12.90;99.90
20045;DHT22;10183;47.808;9.476;2023-05-10T10:43:28;13.20;99.90
20045;DHT22;10183;47.808;9.476;2023-05-10T10:49:08;12.90;99.90
20045;DHT22;10183;47.808;9.476;2023-05-10T10:51:38;12.90;99.90
20045;DHT22;10183;47.808;9.476;2023-05-10T10:54:11;12.80;99.90
20045;DHT22;10183;47.808;9.476;2023-05-10T10:56:37;12.90;99.90
20045;DHT22;10183;47.808;9.476;2023-05-10T10:59:03;12.70;99.90
20045;DHT22;10183;47.808;9.476;2023-05-10T11:01:33;12.80;99.90
20045;DHT22;10183;47.808;9.476;2023-05-10T11:06:32;12.70;99.90
20045;DHT22;10183;47.808;9.476;2023-05-10T11:09:05;12.50;99.90
20045;DHT22;10183;47.808;9.476;2023-05-10T11:11:31;12.30;99.90
20045;DHT22;10183;47.808;9.476;2023-05-10T11:14:04;12.00;99.90
20045;DHT22;10183;47.808;9.476;2023-05-10T11:16:42;11.90;99.90
20045;DHT22;10183;47.808;9.476;2023-05-10T11:19:13;11.60;99.90
20045;DHT22;10183;47.808;9.476;2023-05-10T11:21:50;11.30;99.90
20045;DHT22;10183;47.808;9.476;2023-05-10T11:24:27;11.20;99.90
20045;DHT22;10183;47.808;9.476;2023-05-10T11:26:54;11.10;99.90
20045;DHT22;10183;47.808;9.476;2023-05-10T11:29:21;11.10;99.90
20045;DHT22;10183;47.808;9.476;2023-05-10T11:31:49;11.00;99.90
20045;DHT22;10183;47.808;9.476;2023-05-10T11:34:36;11.00;99.90
20045;DHT22;10183;47.808;9.476;2023-05-10T11:37:02;11.10;99.90
20045;DHT22;10183;47.808;9.476;2023-05-10T11:39:29;11.20;99.90
20045;DHT22;10183;47.808;9.476;2023-05-10T11:41:57;11.50;99.90
20045;DHT22;10183;47.808;9.476;2023-05-10T11:44:23;11.90;99.90
20045;DHT22;10183;47.808;9.476;2023-05-10T11:46:50;12.10;99.90
20045;DHT22;10183;47.808;9.476;2023-05-10T11:49:23;12.50;99.90
20045;DHT22;10183;47.808;9.476;2023-05-10T11:51:50;13.10;99.90
20045;DHT22;10183;47.808;9.476;2023-05-10T11:54:16;13.60;99.90
20045;DHT22;10183;47.808;9.476;2023-05-10T11:56:43;14.20;99.90
20045;DHT22;10183;47.808;9.476;2023-05-10T11:59:09;14.80;99.90
20045;DHT22;10183;47.808;9.476;2023-05-10T12:01:35;14.80;99.90
20045;DHT22;10183;47.808;9.476;2023-05-10T12:04:02;15.00;99.90
20045;DHT22;10183;47.808;9.476;2023-05-10T12:06:32;15.30;99.90
20045;DHT22;10183;47.808;9.476;2023-05-10T12:09:06;15.50;99.90
20045;DHT22;10183;47.808;9.476;2023-05-10T12:11:37;14.90;99.90
20045;DHT22;10183;47.808;9.476;2023-05-10T12:14:04;15.40;99.90
20045;DHT22;10183;47.808;9.476;2023-05-10T12:16:31;16.00;99.90
20045;DHT22;10183;47.808;9.476;2023-05-10T12:18:59;16.00;99.90
20045;DHT22;10183;47.808;9.476;2023-05-10T12:21:28;15.00;99.90
20045;DHT22;10183;47.808;9.476;2023-05-10T12:24:02;14.30;99.90
20045;DHT22;10183;47.808;9.476;2023-05-10T12:26:29;14.50;99.90
20045;DHT22;10183;47.808;9.476;2023-05-10T12:29:14;14.40;99.90
20045;DHT22;10183;47.808;9.476;2023-05-10T12:31:58;14.40;99.90
20045;DHT22;10183;47.808;9.476;2023-05-10T12:34:35;14.30;99.90
20045;DHT22;10183;47.808;9.476;2023-05-10T12:37:04;14.30;99.90
20045;DHT22;10183;47.808;9.476;2023-05-10T12:39:43;14.60;99.90
20045;DHT22;10183;47.808;9.476;2023-05-10T12:42:10;14.70;99.90
20045;DHT22;10183;47.808;9.476;2023-05-10T12:44:36;15.10;99.90
20045;DHT22;10183;47.808;9.476;2023-05-10T12:47:02;15.00;99.90
20045;DHT22;10183;47.808;9.476;2023-05-10T12:49:28;14.70;99.90
20045;DHT22;10183;47.808;9.476;2023-05-10T12:51:55;14.50;99.90
20045;DHT22;10183;47.808;9.476;2023-05-10T12:54:21;14.50;99.90
20045;DHT22;10183;47.808;9.476;2023-05-10T12:56:47;14.90;99.90
20045;DHT22;10183;47.808;9.476;2023-05-10T12:59:13;14.80;99.90
20045;DHT22;10183;47.808;9.476;2023-05-10T13:01:39;14.80;99.90
20045;DHT22;10183;47.808;9.476;2023-05-10T13:04:05;14.60;99.90
20045;DHT22;10183;47.808;9.476;2023-05-10T13:06:32;13.90;99.90
20045;DHT22;10183;47.808;9.476;2023-05-10T13:08:58;13.70;99.90
20045;DHT22;10183;47.808;9.476;2023-05-10T13:11:35;13.50;99.90
20045;DHT22;10183;47.808;9.476;2023-05-10T13:14:01;13.90;99.90
20045;DHT22;10183;47.808;9.476;2023-05-10T13:16:29;13.60;99.90
20045;DHT22;10183;47.808;9.476;2023-05-10T13:18:55;13.70;99.90
20045;DHT22;10183;47.808;9.476;2023-05-10T13:21:21;14.00;99.90
20045;DHT22;10183;47.808;9.476;2023-05-10T13:23:48;13.70;99.90
20045;DHT22;10183;47.808;9.476;2023-05-10T13:26:14;13.90;99.90
20045;DHT22;10183;47.808;9.476;2023-05-10T13:28:46;14.30;99.90
20045;DHT22;10183;47.808;9.476;2023-05-10T13:31:14;14.20;99.90
20045;DHT22;10183;47.808;9.476;2023-05-10T13:33:40;14.10;99.90
20045;DHT22;10183;47.808;9.476;2023-05-10T13:36:07;14.00;99.90
20045;DHT22;10183;47.808;9.476;2023-05-10T13:38:33;14.00;99.90
20045;DHT22;10183;47.808;9.476;2023-05-10T13:40:59;14.10;99.90
20045;DHT22;10183;47.808;9.476;2023-05-10T13:43:25;14.00;99.90
20045;DHT22;10183;47.808;9.476;2023-05-10T13:45:52;14.00;99.90
20045;DHT22;10183;47.808;9.476;2023-05-10T13:48:18;14.00;99.90
20045;DHT22;10183;47.808;9.476;2023-05-10T13:50:44;14.00;99.90
20045;DHT22;10183;47.808;9.476;2023-05-10T13:53:10;14.20;99.90
20045;DHT22;10183;47.808;9.476;2023-05-10T13:55:37;14.30;99.90
20045;DHT22;10183;47.808;9.476;2023-05-10T13:58:03;14.00;99.90
20045;DHT22;10183;47.808;9.476;2023-05-10T14:00:29;13.90;99.90
20045;DHT22;10183;47.808;9.476;2023-05-10T14:02:55;14.10;99.90
20045;DHT22;10183;47.808;9.476;2023-05-10T14:05:21;14.10;99.90
20045;DHT22;10183;47.808;9.476;2023-05-10T14:07:50;14.10;99.90
20045;DHT22;10183;47.808;9.476;2023-05-10T14:10:16;14.60;99.90
20045;DHT22;10183;47.808;9.476;2023-05-10T14:12:42;14.70;99.90
20045;DHT22;10183;47.808;9.476;2023-05-10T14:15:09;14.70;99.90
20045;DHT22;10183;47.808;9.476;2023-05-10T14:17:37;14.90;99.90
20045;DHT22;10183;47.808;9.476;2023-05-10T14:20:04;15.30;99.90
20045;DHT22;10183;47.808;9.476;2023-05-10T14:22:30;15.70;99.90
20045;DHT22;10183;47.808;9.476;2023-05-10T14:24:56;14.70;99.90
20045;DHT22;10183;47.808;9.476;2023-05-10T14:27:23;14.60;99.90
20045;DHT22;10183;47.808;9.476;2023-05-10T14:29:49;14.20;99.90
20045;DHT22;10183;47.808;9.476;2023-05-10T14:32:15;14.30;99.90
20045;DHT22;10183;47.808;9.476;2023-05-10T14:34:41;13.90;99.90
20045;DHT22;10183;47.808;9.476;2023-05-10T14:37:09;14.20;99.90
20045;DHT22;10183;47.808;9.476;2023-05-10T14:39:35;14.10;99.90
20045;DHT22;10183;47.808;9.476;2023-05-10T14:42:04;14.30;99.90
20045;DHT22;10183;47.808;9.476;2023-05-10T14:44:31;14.20;99.90
20045;DHT22;10183;47.808;9.476;2023-05-10T14:46:57;14.40;99.90
20045;DHT22;10183;47.808;9.476;2023-05-10T14:49:23;14.30;99.90
20045;DHT22;10183;47.808;9.476;2023-05-10T14:51:51;14.30;99.90
20045;DHT22;10183;47.808;9.476;2023-05-10T14:54:18;14.10;99.90
20045;DHT22;10183;47.808;9.476;2023-05-10T14:56:44;14.00;99.90
20045;DHT22;10183;47.808;9.476;2023-05-10T14:59:10;13.90;99.90
20045;DHT22;10183;47.808;9.476;2023-05-10T15:01:37;14.00;99.90
20045;DHT22;10183;47.808;9.476;2023-05-10T15:04:08;14.00;99.90
20045;DHT22;10183;47.808;9.476;2023-05-10T15:06:34;13.90;99.90
20045;DHT22;10183;47.808;9.476;2023-05-10T15:09:02;13.80;99.90
20045;DHT22;10183;47.808;9.476;2023-05-10T15:11:29;13.80;99.90
20045;DHT22;10183;47.808;9.476;2023-05-10T15:13:55;13.60;99.90
20045;DHT22;10183;47.808;9.476;2023-05-10T15:16:21;13.70;99.90
20045;DHT22;10183;47.808;9.476;2023-05-10T15:18:48;13.60;99.90
20045;DHT22;10183;47.808;9.476;2023-05-10T15:21:14;13.70;99.90
20045;DHT22;10183;47.808;9.476;2023-05-10T15:23:40;13.60;99.90
20045;DHT22;10183;47.808;9.476;2023-05-10T15:26:06;13.60;99.90
20045;DHT22;10183;47.808;9.476;2023-05-10T15:28:33;13.50;99.90
20045;DHT22;10183;47.808;9.476;2023-05-10T15:31:00;13.50;99.90
20045;DHT22;10183;47.808;9.476;2023-05-10T15:33:26;13.50;99.90
20045;DHT22;10183;47.808;9.476;2023-05-10T15:35:53;13.30;99.90
20045;DHT22;10183;47.808;9.476;2023-05-10T15:38:22;13.30;99.90
20045;DHT22;10183;47.808;9.476;2023-05-10T15:40:48;13.20;99.90
20045;DHT22;10183;47.808;9.476;2023-05-10T15:43:14;13.20;99.90
20045;DHT22;10183;47.808;9.476;2023-05-10T15:45:41;13.10;99.90
20045;DHT22;10183;47.808;9.476;2023-05-10T15:48:07;13.10;99.90
20045;DHT22;10183;47.808;9.476;2023-05-10T15:50:33;13.10;99.90
20045;DHT22;10183;47.808;9.476;2023-05-10T15:52:59;13.10;99.90
20045;DHT22;10183;47.808;9.476;2023-05-10T15:55:25;13.20;99.90
20045;DHT22;10183;47.808;9.476;2023-05-10T15:57:52;13.20;99.90
20045;DHT22;10183;47.808;9.476;2023-05-10T16:00:18;13.20;99.90
20045;DHT22;10183;47.808;9.476;2023-05-10T16:02:45;13.10;99.90